createdAt,value
2018-12-17T00:00:52.897Z,2.73
2018-12-17T00:01:53.032Z,2.75
2018-12-17T00:02:52.932Z,2.72
2018-12-17T00:03:52.987Z,2.73
2018-12-17T00:04:53.164Z,2.71
2018-12-17T00:05:52.968Z,2.72
2018-12-17T00:06:52.855Z,2.72
2018-12-17T00:07:53.000Z,2.72
2018-12-17T00:08:53.027Z,2.71
2018-12-17T00:09:52.858Z,2.72
2018-12-17T00:10:53.207Z,2.71
2018-12-17T00:11:53.094Z,2.71
2018-12-17T00:12:52.985Z,2.72
2018-12-17T00:13:52.990Z,2.71
2018-12-17T00:14:53.032Z,2.71
2018-12-17T00:15:53.022Z,2.72
2018-12-17T00:16:53.220Z,2.73
2018-12-17T00:17:52.835Z,2.72
2018-12-17T00:18:52.944Z,2.71
2018-12-17T00:19:53.107Z,2.71
2018-12-17T00:20:52.920Z,2.75
2018-12-17T00:21:53.203Z,2.71
2018-12-17T00:22:52.885Z,2.75
2018-12-17T00:23:52.958Z,2.73
2018-12-17T00:24:52.846Z,2.75
2018-12-17T00:25:52.854Z,2.75
2018-12-17T00:26:52.928Z,2.75
2018-12-17T00:27:52.970Z,2.77
2018-12-17T00:28:53.063Z,2.77
2018-12-17T00:29:52.829Z,2.75
2018-12-17T00:30:53.004Z,2.76
2018-12-17T00:31:52.988Z,2.75
2018-12-17T00:32:53.156Z,2.77
2018-12-17T00:33:52.985Z,2.76
2018-12-17T00:34:52.894Z,2.76
2018-12-17T00:35:52.960Z,2.77
2018-12-17T00:36:52.980Z,2.76
2018-12-17T00:37:53.117Z,2.77
2018-12-17T00:38:52.989Z,2.77
2018-12-17T00:39:53.200Z,2.79
2018-12-17T00:40:52.875Z,2.75
2018-12-17T00:41:53.028Z,2.76
2018-12-17T00:42:52.974Z,2.75
2018-12-17T00:43:53.708Z,2.75
2018-12-17T00:44:52.795Z,2.77
2018-12-17T00:45:53.094Z,2.76
2018-12-17T00:46:52.806Z,2.73
2018-12-17T00:47:52.970Z,2.73
2018-12-17T00:48:53.003Z,2.76
2018-12-17T00:49:52.964Z,2.76
2018-12-17T00:50:52.811Z,2.76
2018-12-17T00:51:53.149Z,2.76
2018-12-17T00:52:53.070Z,2.75
2018-12-17T00:53:52.821Z,2.73
2018-12-17T00:54:53.068Z,2.79
2018-12-17T00:55:52.781Z,2.76
2018-12-17T00:56:52.983Z,2.76
2018-12-17T00:57:52.783Z,2.75
2018-12-17T00:58:53.100Z,2.75
2018-12-17T00:59:52.796Z,2.75
2018-12-17T01:00:52.853Z,2.75
2018-12-17T01:01:53.219Z,2.75
2018-12-17T01:02:53.024Z,2.75
2018-12-17T01:03:52.840Z,2.75
2018-12-17T01:04:52.798Z,2.75
2018-12-17T01:05:52.789Z,2.73
2018-12-17T01:06:53.255Z,2.72
2018-12-17T01:07:52.800Z,2.73
2018-12-17T01:08:53.066Z,2.73
2018-12-17T01:09:52.850Z,2.72
2018-12-17T01:10:53.296Z,2.73
2018-12-17T01:11:52.997Z,2.72
2018-12-17T01:12:52.781Z,2.71
2018-12-17T01:13:52.746Z,2.76
2018-12-17T01:14:52.899Z,2.73
2018-12-17T01:15:52.964Z,2.73
2018-12-17T01:16:52.963Z,2.71
2018-12-17T01:17:52.754Z,2.73
2018-12-17T01:18:52.871Z,2.73
2018-12-17T01:19:52.982Z,2.73
2018-12-17T01:20:52.803Z,2.71
2018-12-17T01:21:52.764Z,2.72
2018-12-17T01:22:52.990Z,2.69
2018-12-17T01:23:52.749Z,2.71
2018-12-17T01:24:52.786Z,2.69
2018-12-17T01:25:53.137Z,2.69
2018-12-17T01:26:52.827Z,2.69
2018-12-17T01:27:52.732Z,2.66
2018-12-17T01:28:52.913Z,2.69
2018-12-17T01:29:53.038Z,2.72
2018-12-17T01:30:52.865Z,2.69
2018-12-17T01:31:52.758Z,2.69
2018-12-17T01:32:53.020Z,2.68
2018-12-17T01:33:52.768Z,2.69
2018-12-17T01:34:52.754Z,2.68
2018-12-17T01:35:52.757Z,2.71
2018-12-17T01:36:53.144Z,2.66
2018-12-17T01:37:52.796Z,2.68
2018-12-17T01:38:52.756Z,2.69
2018-12-17T01:39:52.732Z,2.72
2018-12-17T01:40:52.766Z,2.71
2018-12-17T01:41:52.748Z,2.71
2018-12-17T01:42:52.764Z,2.69
2018-12-17T01:43:52.816Z,2.71
2018-12-17T01:44:52.741Z,2.72
2018-12-17T01:45:52.722Z,2.73
2018-12-17T01:46:52.788Z,2.71
2018-12-17T01:47:52.741Z,2.72
2018-12-17T01:48:52.769Z,2.72
2018-12-17T01:49:52.740Z,2.71
2018-12-17T01:50:53.190Z,2.71
2018-12-17T01:51:52.975Z,2.75
2018-12-17T01:52:52.777Z,2.75
2018-12-17T01:53:53.540Z,2.72
2018-12-17T01:54:52.933Z,2.73
2018-12-17T01:55:52.945Z,2.75
2018-12-17T01:56:53.028Z,2.73
2018-12-17T01:57:52.595Z,2.73
2018-12-17T01:58:52.765Z,2.75
2018-12-17T01:59:52.763Z,2.75
2018-12-17T02:00:54.008Z,2.76
2018-12-17T02:01:52.963Z,2.76
2018-12-17T02:02:52.746Z,2.76
2018-12-17T02:03:52.939Z,2.77
2018-12-17T02:04:52.843Z,2.77
2018-12-17T02:05:53.162Z,2.77
2018-12-17T02:06:53.017Z,2.77
2018-12-17T02:07:52.716Z,2.8
2018-12-17T02:08:52.757Z,2.8
2018-12-17T02:09:52.782Z,2.77
2018-12-17T02:10:52.820Z,2.79
2018-12-17T02:11:52.724Z,2.77
2018-12-17T02:12:52.733Z,2.77
2018-12-17T02:13:52.734Z,2.79
2018-12-17T02:14:52.713Z,2.79
2018-12-17T02:15:52.840Z,2.77
2018-12-17T02:16:52.767Z,2.8
2018-12-17T02:17:53.205Z,2.82
2018-12-17T02:18:52.879Z,2.8
2018-12-17T02:19:52.741Z,2.83
2018-12-17T02:20:52.922Z,2.83
2018-12-17T02:21:52.654Z,2.83
2018-12-17T02:22:53.492Z,2.82
2018-12-17T02:23:52.693Z,2.8
2018-12-17T02:24:52.776Z,2.8
2018-12-17T02:25:52.877Z,2.82
2018-12-17T02:26:52.854Z,2.83
2018-12-17T02:27:53.103Z,2.8
2018-12-17T02:28:52.907Z,2.82
2018-12-17T02:29:53.043Z,2.8
2018-12-17T02:30:52.802Z,2.82
2018-12-17T02:31:52.767Z,2.82
2018-12-17T02:32:52.694Z,2.82
2018-12-17T02:33:53.031Z,2.82
2018-12-17T02:34:53.135Z,2.82
2018-12-17T02:35:52.787Z,2.83
2018-12-17T02:36:52.796Z,2.82
2018-12-17T02:37:53.080Z,2.8
2018-12-17T02:38:52.753Z,2.83
2018-12-17T02:39:52.617Z,2.8
2018-12-17T02:40:53.132Z,2.82
2018-12-17T02:41:52.912Z,2.8
2018-12-17T02:42:52.899Z,2.8
2018-12-17T02:43:53.044Z,2.8
2018-12-17T02:44:52.623Z,2.82
2018-12-17T02:45:52.825Z,2.8
2018-12-17T02:46:52.687Z,2.82
2018-12-17T02:47:52.864Z,2.8
2018-12-17T02:48:52.837Z,2.8
2018-12-17T02:49:53.001Z,2.82
2018-12-17T02:50:52.766Z,2.8
2018-12-17T02:51:52.640Z,2.82
2018-12-17T02:52:52.649Z,2.83
2018-12-17T02:53:52.806Z,2.84
2018-12-17T02:54:52.964Z,2.86
2018-12-17T02:55:52.720Z,2.84
2018-12-17T02:56:52.625Z,2.86
2018-12-17T02:57:52.662Z,2.84
2018-12-17T02:58:52.947Z,2.86
2018-12-17T02:59:52.608Z,2.86
2018-12-17T03:00:52.837Z,2.89
2018-12-17T03:01:52.625Z,2.9
2018-12-17T03:02:52.952Z,2.92
2018-12-17T03:03:53.025Z,2.9
2018-12-17T03:04:52.749Z,2.9
2018-12-17T03:05:52.682Z,2.9
2018-12-17T03:06:52.762Z,2.93
2018-12-17T03:07:52.801Z,2.89
2018-12-17T03:08:52.807Z,2.9
2018-12-17T03:09:52.603Z,2.9
2018-12-17T03:10:52.719Z,2.89
2018-12-17T03:11:52.881Z,2.93
2018-12-17T03:12:52.581Z,2.93
2018-12-17T03:13:52.586Z,2.9
2018-12-17T03:14:52.971Z,2.92
2018-12-17T03:15:52.578Z,2.92
2018-12-17T03:16:52.679Z,2.92
2018-12-17T03:17:52.839Z,2.93
2018-12-17T03:18:52.962Z,2.92
2018-12-17T03:19:52.562Z,2.94
2018-12-17T03:20:52.861Z,2.93
2018-12-17T03:21:52.569Z,2.93
2018-12-17T03:22:52.645Z,2.93
2018-12-17T03:23:52.797Z,2.94
2018-12-17T03:24:52.686Z,2.93
2018-12-17T03:25:52.600Z,2.93
2018-12-17T03:26:52.628Z,2.94
2018-12-17T03:27:52.611Z,2.93
2018-12-17T03:28:52.619Z,2.96
2018-12-17T03:29:52.566Z,2.93
2018-12-17T03:30:53.112Z,2.96
2018-12-17T03:31:52.584Z,2.97
2018-12-17T03:32:52.749Z,2.94
2018-12-17T03:33:52.575Z,2.93
2018-12-17T03:34:52.809Z,2.93
2018-12-17T03:35:52.652Z,2.94
2018-12-17T03:36:52.547Z,2.94
2018-12-17T03:37:52.954Z,2.96
2018-12-17T03:38:52.768Z,2.94
2018-12-17T03:39:52.622Z,2.96
2018-12-17T03:40:52.940Z,2.94
2018-12-17T03:41:52.794Z,2.97
2018-12-17T03:42:52.661Z,2.96
2018-12-17T03:43:52.660Z,2.96
2018-12-17T03:44:52.646Z,2.93
2018-12-17T03:45:53.131Z,2.93
2018-12-17T03:46:52.948Z,2.96
2018-12-17T03:47:52.553Z,2.94
2018-12-17T03:48:52.725Z,2.94
2018-12-17T03:49:52.662Z,2.99
2018-12-17T03:50:52.655Z,2.97
2018-12-17T03:51:52.949Z,2.94
2018-12-17T03:52:52.648Z,2.94
2018-12-17T03:53:52.587Z,2.94
2018-12-17T03:54:53.175Z,2.97
2018-12-17T03:55:52.617Z,2.94
2018-12-17T03:56:52.887Z,2.94
2018-12-17T03:57:52.569Z,2.94
2018-12-17T03:58:59.653Z,2.96
2018-12-17T03:59:52.535Z,2.96
2018-12-17T04:00:52.569Z,2.96
2018-12-17T04:01:52.683Z,2.94
2018-12-17T04:02:52.719Z,2.94
2018-12-17T04:03:52.560Z,2.97
2018-12-17T04:04:52.576Z,2.94
2018-12-17T04:05:52.533Z,2.93
2018-12-17T04:06:52.666Z,2.94
2018-12-17T04:07:53.380Z,2.93
2018-12-17T04:08:52.593Z,2.94
2018-12-17T04:09:52.935Z,2.96
2018-12-17T04:10:52.607Z,2.94
2018-12-17T04:11:52.597Z,2.94
2018-12-17T04:12:52.601Z,2.94
2018-12-17T04:13:52.671Z,2.97
2018-12-17T04:14:52.533Z,2.96
2018-12-17T04:15:52.839Z,2.93
2018-12-17T04:16:52.506Z,2.94
2018-12-17T04:17:52.553Z,2.96
2018-12-17T04:18:52.985Z,2.96
2018-12-17T04:19:52.633Z,2.96
2018-12-17T04:20:53.046Z,2.94
2018-12-17T04:21:53.140Z,2.94
2018-12-17T04:22:52.532Z,2.96
2018-12-17T04:23:52.762Z,2.96
2018-12-17T04:24:52.631Z,2.99
2018-12-17T04:25:52.987Z,2.96
2018-12-17T04:26:52.723Z,3
2018-12-17T04:27:52.557Z,2.97
2018-12-17T04:28:52.672Z,2.97
2018-12-17T04:29:52.543Z,2.99
2018-12-17T04:30:52.560Z,2.94
2018-12-17T04:31:52.747Z,2.96
2018-12-17T04:32:52.491Z,3
2018-12-17T04:33:52.699Z,2.96
2018-12-17T04:34:52.677Z,2.99
2018-12-17T04:35:53.355Z,2.99
2018-12-17T04:36:52.541Z,2.97
2018-12-17T04:37:52.627Z,2.96
2018-12-17T04:38:52.760Z,2.97
2018-12-17T04:39:52.716Z,2.97
2018-12-17T04:40:52.596Z,2.94
2018-12-17T04:41:52.542Z,2.97
2018-12-17T04:42:52.515Z,2.96
2018-12-17T04:43:52.573Z,2.96
2018-12-17T04:44:52.503Z,2.94
2018-12-17T04:45:52.686Z,2.96
2018-12-17T04:46:52.562Z,2.94
2018-12-17T04:47:52.545Z,2.96
2018-12-17T04:48:52.626Z,2.96
2018-12-17T04:49:52.480Z,2.97
2018-12-17T04:50:52.487Z,2.97
2018-12-17T04:51:52.474Z,2.97
2018-12-17T04:52:52.486Z,2.97
2018-12-17T04:53:52.520Z,2.96
2018-12-17T04:54:52.479Z,2.99
2018-12-17T04:55:52.535Z,2.97
2018-12-17T04:56:52.529Z,3
2018-12-17T04:57:52.763Z,2.97
2018-12-17T04:58:52.776Z,3.01
2018-12-17T04:59:52.447Z,3.01
2018-12-17T05:00:52.470Z,3.01
2018-12-17T05:01:52.531Z,3.01
2018-12-17T05:02:52.547Z,3.03
2018-12-17T05:03:52.439Z,3.01
2018-12-17T05:04:52.445Z,3.01
2018-12-17T05:05:52.445Z,3.01
2018-12-17T05:06:52.483Z,3.01
2018-12-17T05:07:52.422Z,3
2018-12-17T05:08:52.460Z,3
2018-12-17T05:09:52.550Z,3.01
2018-12-17T05:10:52.453Z,3.01
2018-12-17T05:11:52.599Z,3.06
2018-12-17T05:12:52.569Z,3.03
2018-12-17T05:13:52.446Z,3.01
2018-12-17T05:14:52.477Z,3.03
2018-12-17T05:15:52.630Z,3.06
2018-12-17T05:16:52.695Z,3.04
2018-12-17T05:17:52.423Z,3.04
2018-12-17T05:18:52.505Z,3.04
2018-12-17T05:19:52.619Z,3.03
2018-12-17T05:20:52.503Z,3.04
2018-12-17T05:21:52.547Z,3.04
2018-12-17T05:22:52.625Z,3.03
2018-12-17T05:23:52.773Z,3.04
2018-12-17T05:24:52.732Z,3.04
2018-12-17T05:25:52.504Z,3.04
2018-12-17T05:26:52.889Z,3.04
2018-12-17T05:27:52.731Z,3.04
2018-12-17T05:28:52.481Z,3.04
2018-12-17T05:29:52.455Z,3.03
2018-12-17T05:30:52.524Z,3.04
2018-12-17T05:31:52.615Z,3.04
2018-12-17T05:32:52.536Z,3.08
2018-12-17T05:33:53.245Z,3.06
2018-12-17T05:34:52.460Z,3.04
2018-12-17T05:35:52.539Z,3.04
2018-12-17T05:36:52.716Z,3.04
2018-12-17T05:37:52.583Z,3.07
2018-12-17T05:38:53.240Z,3.07
2018-12-17T05:39:52.411Z,3.08
2018-12-17T05:40:52.695Z,3.07
2018-12-17T05:41:52.535Z,3.1
2018-12-17T05:42:52.439Z,3.11
2018-12-17T05:43:52.839Z,3.12
2018-12-17T05:44:52.387Z,3.11
2018-12-17T05:45:52.426Z,3.14
2018-12-17T05:46:52.427Z,3.11
2018-12-17T05:47:52.454Z,3.12
2018-12-17T05:48:52.389Z,3.11
2018-12-17T05:49:52.624Z,3.12
2018-12-17T05:50:52.518Z,3.15
2018-12-17T05:51:52.800Z,3.14
2018-12-17T05:52:52.632Z,3.14
2018-12-17T05:53:52.377Z,3.12
2018-12-17T05:54:52.604Z,3.12
2018-12-17T05:55:52.402Z,3.12
2018-12-17T05:56:52.443Z,3.17
2018-12-17T05:57:52.490Z,3.15
2018-12-17T05:58:52.440Z,3.17
2018-12-17T05:59:52.507Z,3.18
2018-12-17T06:00:52.496Z,3.18
2018-12-17T06:01:52.524Z,3.2
2018-12-17T06:02:52.460Z,3.17
2018-12-17T06:03:52.393Z,3.15
2018-12-17T06:04:52.405Z,3.15
2018-12-17T06:05:52.467Z,3.14
2018-12-17T06:06:52.590Z,3.17
2018-12-17T06:07:52.666Z,3.17
2018-12-17T06:08:52.482Z,3.15
2018-12-17T06:09:52.356Z,3.15
2018-12-17T06:10:52.411Z,3.12
2018-12-17T06:11:52.402Z,3.18
2018-12-17T06:12:52.803Z,3.12
2018-12-17T06:13:52.401Z,3.12
2018-12-17T06:14:52.625Z,3.14
2018-12-17T06:15:52.358Z,3.12
2018-12-17T06:16:52.412Z,3.11
2018-12-17T06:17:52.497Z,3.12
2018-12-17T06:18:52.604Z,3.12
2018-12-17T06:19:52.381Z,3.1
2018-12-17T06:20:52.533Z,3.11
2018-12-17T06:21:52.529Z,3.1
2018-12-17T06:22:52.479Z,3.12
2018-12-17T06:23:52.783Z,3.11
2018-12-17T06:24:52.689Z,3.11
2018-12-17T06:25:52.613Z,3.11
2018-12-17T06:26:52.480Z,3.11
2018-12-17T06:27:52.392Z,3.11
2018-12-17T06:28:52.444Z,3.08
2018-12-17T06:29:52.483Z,3.12
2018-12-17T06:30:52.370Z,3.11
2018-12-17T06:31:52.475Z,3.11
2018-12-17T06:32:52.374Z,3.11
2018-12-17T06:33:52.334Z,3.1
2018-12-17T06:34:52.341Z,3.14
2018-12-17T06:35:52.421Z,3.11
2018-12-17T06:36:52.529Z,3.12
2018-12-17T06:37:52.357Z,3.11
2018-12-17T06:38:52.350Z,3.12
2018-12-17T06:39:52.576Z,3.11
2018-12-17T06:40:52.327Z,3.14
2018-12-17T06:41:52.337Z,3.11
2018-12-17T06:42:52.453Z,3.12
2018-12-17T06:43:52.409Z,3.14
2018-12-17T06:44:52.314Z,3.12
2018-12-17T06:45:52.324Z,3.12
2018-12-17T06:46:52.330Z,3.14
2018-12-17T06:47:52.333Z,3.17
2018-12-17T06:48:52.384Z,3.17
2018-12-17T06:49:52.544Z,3.17
2018-12-17T06:50:52.581Z,3.17
2018-12-17T06:51:52.351Z,3.15
2018-12-17T06:52:52.471Z,3.17
2018-12-17T06:53:52.511Z,3.17
2018-12-17T06:54:55.225Z,3.18
2018-12-17T06:55:52.398Z,3.17
2018-12-17T06:56:52.353Z,3.2
2018-12-17T06:57:52.481Z,3.21
2018-12-17T06:58:52.319Z,3.21
2018-12-17T06:59:52.576Z,3.22
2018-12-17T07:00:52.520Z,3.22
2018-12-17T07:01:52.661Z,3.22
2018-12-17T07:02:52.422Z,3.22
2018-12-17T07:03:52.277Z,3.24
2018-12-17T07:04:52.405Z,3.22
2018-12-17T07:05:52.349Z,3.24
2018-12-17T07:06:52.416Z,3.24
2018-12-17T07:07:52.527Z,3.24
2018-12-17T07:08:52.642Z,3.24
2018-12-17T07:09:52.267Z,3.24
2018-12-17T07:10:52.279Z,3.22
2018-12-17T07:11:52.302Z,3.27
2018-12-17T07:12:52.301Z,3.25
2018-12-17T07:13:52.507Z,3.24
2018-12-17T07:14:52.255Z,3.25
2018-12-17T07:15:52.252Z,3.25
2018-12-17T07:16:52.390Z,3.25
2018-12-17T07:17:52.312Z,3.25
2018-12-17T07:18:52.352Z,3.25
2018-12-17T07:19:52.278Z,3.24
2018-12-17T07:20:52.406Z,3.27
2018-12-17T07:21:52.720Z,3.25
2018-12-17T07:22:52.429Z,3.25
2018-12-17T07:23:52.317Z,3.25
2018-12-17T07:24:53.129Z,3.27
2018-12-17T07:25:52.627Z,3.25
2018-12-17T07:26:52.354Z,3.22
2018-12-17T07:27:52.435Z,3.25
2018-12-17T07:28:52.374Z,3.24
2018-12-17T07:29:52.281Z,3.25
2018-12-17T07:30:52.253Z,3.25
2018-12-17T07:31:52.366Z,3.27
2018-12-17T07:32:52.466Z,3.27
2018-12-17T07:33:52.277Z,3.27
2018-12-17T07:34:52.284Z,3.27
2018-12-17T07:35:52.981Z,3.28
2018-12-17T07:36:52.274Z,3.28
2018-12-17T07:37:52.535Z,3.25
2018-12-17T07:38:52.280Z,3.27
2018-12-17T07:39:52.216Z,3.28
2018-12-17T07:40:52.329Z,3.29
2018-12-17T07:41:52.264Z,3.27
2018-12-17T07:42:52.411Z,3.29
2018-12-17T07:43:52.346Z,3.29
2018-12-17T07:44:53.097Z,3.32
2018-12-17T07:45:52.289Z,3.31
2018-12-17T07:46:52.286Z,3.35
2018-12-17T07:47:52.264Z,3.35
2018-12-17T07:48:52.301Z,3.34
2018-12-17T07:49:52.523Z,3.34
2018-12-17T07:50:52.332Z,3.37
2018-12-17T07:51:52.357Z,3.39
2018-12-17T07:52:52.377Z,3.38
2018-12-17T07:53:52.578Z,3.42
2018-12-17T07:54:52.394Z,3.41
2018-12-17T07:55:52.453Z,3.42
2018-12-17T07:56:52.368Z,3.42
2018-12-17T07:57:52.982Z,3.44
2018-12-17T07:58:52.418Z,3.45
2018-12-17T07:59:57.136Z,3.48
2018-12-17T08:00:52.261Z,3.48
2018-12-17T08:01:52.577Z,3.46
2018-12-17T08:02:52.349Z,3.46
2018-12-17T08:03:52.266Z,3.48
2018-12-17T08:04:52.358Z,3.46
2018-12-17T08:05:52.298Z,3.48
2018-12-17T08:06:52.200Z,3.49
2018-12-17T08:07:52.228Z,3.48
2018-12-17T08:08:52.307Z,3.51
2018-12-17T08:09:52.378Z,3.51
2018-12-17T08:10:52.661Z,3.52
2018-12-17T08:11:52.365Z,3.54
2018-12-17T08:12:52.195Z,3.54
2018-12-17T08:13:52.251Z,3.54
2018-12-17T08:14:52.217Z,3.54
2018-12-17T08:15:52.215Z,3.55
2018-12-17T08:16:52.446Z,3.55
2018-12-17T08:17:52.263Z,3.56
2018-12-17T08:18:52.209Z,3.55
2018-12-17T08:19:52.267Z,3.55
2018-12-17T08:20:52.245Z,3.56
2018-12-17T08:21:52.206Z,3.56
2018-12-17T08:22:52.224Z,3.58
2018-12-17T08:23:52.325Z,3.58
2018-12-17T08:24:52.185Z,3.59
2018-12-17T08:25:52.175Z,3.59
2018-12-17T08:26:52.412Z,3.59
2018-12-17T08:27:52.574Z,3.61
2018-12-17T08:28:52.299Z,3.61
2018-12-17T08:29:52.220Z,3.58
2018-12-17T08:30:52.558Z,3.62
2018-12-17T08:31:52.182Z,3.59
2018-12-17T08:32:52.289Z,3.65
2018-12-17T08:33:52.396Z,3.65
2018-12-17T08:34:52.153Z,3.65
2018-12-17T08:35:52.207Z,3.65
2018-12-17T08:36:52.796Z,3.65
2018-12-17T08:37:52.408Z,3.66
2018-12-17T08:38:52.419Z,3.66
2018-12-17T08:39:52.595Z,3.66
2018-12-17T08:40:53.015Z,3.67
2018-12-17T08:41:52.405Z,3.67
2018-12-17T08:42:52.587Z,3.66
2018-12-17T08:43:52.277Z,3.67
2018-12-17T08:44:52.221Z,3.66
2018-12-17T08:45:52.151Z,3.66
2018-12-17T08:46:52.337Z,3.67
2018-12-17T08:47:52.360Z,3.69
2018-12-17T08:48:52.336Z,3.67
2018-12-17T08:49:52.388Z,3.66
2018-12-17T08:50:52.177Z,3.69
2018-12-17T08:51:52.169Z,3.66
2018-12-17T08:52:52.274Z,3.67
2018-12-17T08:53:53.293Z,3.69
2018-12-17T08:54:52.313Z,3.69
2018-12-17T08:55:52.312Z,3.67
2018-12-17T08:56:52.296Z,3.67
2018-12-17T08:57:52.242Z,3.69
2018-12-17T08:58:52.202Z,3.7
2018-12-17T08:59:52.326Z,3.69
2018-12-17T09:00:52.205Z,3.7
2018-12-17T09:01:52.157Z,3.7
2018-12-17T09:02:52.259Z,3.69
2018-12-17T09:03:52.285Z,3.7
2018-12-17T09:04:52.316Z,3.72
2018-12-17T09:05:52.391Z,3.7
2018-12-17T09:06:52.326Z,3.7
2018-12-17T09:07:52.167Z,3.73
2018-12-17T09:08:52.277Z,3.73
2018-12-17T09:09:52.145Z,3.72
2018-12-17T09:10:52.289Z,3.7
2018-12-17T09:11:52.399Z,3.72
2018-12-17T09:12:52.382Z,3.73
2018-12-17T09:13:52.222Z,3.7
2018-12-17T09:14:52.365Z,3.7
2018-12-17T09:15:52.199Z,3.72
2018-12-17T09:16:52.192Z,3.67
2018-12-17T09:17:52.106Z,3.67
2018-12-17T09:18:52.259Z,3.69
2018-12-17T09:19:52.929Z,3.69
2018-12-17T09:20:52.162Z,3.69
2018-12-17T09:21:52.284Z,3.69
2018-12-17T09:22:52.114Z,3.67
2018-12-17T09:23:52.301Z,3.73
2018-12-17T09:24:52.495Z,3.73
2018-12-17T09:25:52.103Z,3.72
2018-12-17T09:26:52.132Z,3.72
2018-12-17T09:27:52.280Z,3.7
2018-12-17T09:28:52.545Z,3.73
2018-12-17T09:29:52.258Z,3.73
2018-12-17T09:30:52.421Z,3.72
2018-12-17T09:31:52.386Z,3.74
2018-12-17T09:32:52.109Z,3.74
2018-12-17T09:33:52.473Z,3.73
2018-12-17T09:34:52.259Z,3.76
2018-12-17T09:35:54.622Z,3.76
2018-12-17T09:36:52.302Z,3.74
2018-12-17T09:37:52.426Z,3.74
2018-12-17T09:38:52.187Z,3.73
2018-12-17T09:39:52.758Z,3.76
2018-12-17T09:40:52.387Z,3.77
2018-12-17T09:41:52.130Z,3.76
2018-12-17T09:42:52.771Z,3.77
2018-12-17T09:43:52.219Z,3.77
2018-12-17T09:44:52.177Z,3.79
2018-12-17T09:45:52.321Z,3.8
2018-12-17T09:46:52.163Z,3.82
2018-12-17T09:47:52.097Z,3.79
2018-12-17T09:48:52.116Z,3.82
2018-12-17T09:49:52.250Z,3.82
2018-12-17T09:50:52.099Z,3.8
2018-12-17T09:51:52.116Z,3.82
2018-12-17T09:52:52.046Z,3.8
2018-12-17T09:53:52.616Z,3.83
2018-12-17T09:54:52.092Z,3.83
2018-12-17T09:55:52.172Z,3.82
2018-12-17T09:56:52.106Z,3.84
2018-12-17T09:57:52.130Z,3.82
2018-12-17T09:58:52.485Z,3.83
2018-12-17T09:59:52.210Z,3.83
2018-12-17T10:00:52.627Z,3.83
2018-12-17T10:01:52.140Z,3.83
2018-12-17T10:02:52.069Z,3.82
2018-12-17T10:03:52.078Z,3.83
2018-12-17T10:04:52.116Z,3.83
2018-12-17T10:05:52.166Z,3.84
2018-12-17T10:06:52.071Z,3.84
2018-12-17T10:07:52.177Z,3.83
2018-12-17T10:08:52.186Z,3.84
2018-12-17T10:09:52.150Z,3.84
2018-12-17T10:10:52.148Z,3.86
2018-12-17T10:11:52.702Z,3.86
2018-12-17T10:12:52.199Z,3.84
2018-12-17T10:13:52.206Z,3.84
2018-12-17T10:14:52.142Z,3.83
2018-12-17T10:15:52.031Z,3.83
2018-12-17T10:16:52.671Z,3.84
2018-12-17T10:17:52.111Z,3.86
2018-12-17T10:18:52.648Z,3.87
2018-12-17T10:19:52.123Z,3.83
2018-12-17T10:20:52.882Z,3.84
2018-12-17T10:21:52.260Z,3.9
2018-12-17T10:22:52.061Z,3.9
2018-12-17T10:23:52.156Z,3.89
2018-12-17T10:24:52.136Z,3.89
2018-12-17T10:25:52.266Z,3.87
2018-12-17T10:26:52.297Z,3.9
2018-12-17T10:27:52.218Z,3.9
2018-12-17T10:28:52.124Z,3.91
2018-12-17T10:29:52.235Z,3.9
2018-12-17T10:30:52.235Z,3.9
2018-12-17T10:31:52.227Z,3.9
2018-12-17T10:32:52.325Z,3.9
2018-12-17T10:33:52.016Z,3.9
2018-12-17T10:34:52.181Z,3.91
2018-12-17T10:35:52.209Z,3.89
2018-12-17T10:36:52.003Z,3.91
2018-12-17T10:37:52.097Z,3.9
2018-12-17T10:38:52.376Z,3.89
2018-12-17T10:39:52.196Z,3.93
2018-12-17T10:40:52.306Z,3.9
2018-12-17T10:41:52.278Z,3.9
2018-12-17T10:42:52.307Z,3.9
2018-12-17T10:43:52.147Z,3.89
2018-12-17T10:44:52.213Z,3.89
2018-12-17T10:45:52.175Z,3.9
2018-12-17T10:46:52.244Z,3.9
2018-12-17T10:47:52.314Z,3.9
2018-12-17T10:48:52.107Z,3.89
2018-12-17T10:49:52.019Z,3.91
2018-12-17T10:50:52.322Z,3.9
2018-12-17T10:51:52.169Z,3.89
2018-12-17T10:52:52.532Z,3.9
2018-12-17T10:53:52.090Z,3.9
2018-12-17T10:54:52.243Z,3.93
2018-12-17T10:55:52.060Z,3.91
2018-12-17T10:56:52.034Z,3.91
2018-12-17T10:57:52.346Z,3.9
2018-12-17T10:58:52.179Z,3.89
2018-12-17T10:59:52.042Z,3.9
2018-12-17T11:00:52.229Z,3.91
2018-12-17T11:01:52.099Z,3.9
2018-12-17T11:02:52.191Z,3.9
2018-12-17T11:03:52.263Z,3.91
2018-12-17T11:04:51.990Z,3.94
2018-12-17T11:05:52.235Z,3.91
2018-12-17T11:06:52.162Z,3.93
2018-12-17T11:07:52.329Z,3.94
2018-12-17T11:08:52.142Z,3.94
2018-12-17T11:09:52.363Z,3.96
2018-12-17T11:10:52.031Z,3.96
2018-12-17T11:11:52.051Z,3.93
2018-12-17T11:12:52.387Z,3.96
2018-12-17T11:13:52.493Z,3.96
2018-12-17T11:14:52.846Z,3.96
2018-12-17T11:15:52.404Z,3.97
2018-12-17T11:16:52.000Z,3.98
2018-12-17T11:17:52.130Z,4
2018-12-17T11:18:51.968Z,4.01
2018-12-17T11:19:52.041Z,4
2018-12-17T11:20:52.253Z,4.02
2018-12-17T11:21:52.261Z,4.01
2018-12-17T11:22:52.118Z,4.01
2018-12-17T11:23:52.077Z,4.01
2018-12-17T11:24:52.285Z,4.05
2018-12-17T11:25:52.582Z,4.02
2018-12-17T11:26:52.094Z,4.07
2018-12-17T11:27:52.304Z,4.07
2018-12-17T11:28:51.967Z,4.05
2018-12-17T11:29:52.249Z,4.04
2018-12-17T11:30:52.198Z,4.04
2018-12-17T11:31:52.238Z,4.07
2018-12-17T11:32:52.132Z,4.07
2018-12-17T11:33:52.111Z,4.1
2018-12-17T11:34:52.161Z,4.07
2018-12-17T11:35:52.770Z,4.1
2018-12-17T11:36:52.318Z,4.1
2018-12-17T11:37:52.119Z,4.08
2018-12-17T11:38:51.975Z,4.08
2018-12-17T11:39:52.568Z,4.1
2018-12-17T11:40:52.041Z,4.08
2018-12-17T11:41:52.576Z,4.1
2018-12-17T11:42:52.086Z,4.12
2018-12-17T11:43:52.230Z,4.14
2018-12-17T11:44:51.931Z,4.15
2018-12-17T11:45:52.021Z,4.15
2018-12-17T11:46:52.210Z,4.15
2018-12-17T11:47:52.188Z,4.17
2018-12-17T11:48:51.893Z,4.15
2018-12-17T11:49:52.016Z,4.18
2018-12-17T11:50:52.105Z,4.19
2018-12-17T11:51:52.084Z,4.19
2018-12-17T11:52:52.119Z,4.24
2018-12-17T11:53:52.239Z,4.25
2018-12-17T11:54:51.929Z,4.26
2018-12-17T11:55:52.738Z,4.26
2018-12-17T11:56:52.209Z,4.29
2018-12-17T11:57:51.954Z,4.29
2018-12-17T11:58:52.331Z,4.3
2018-12-17T11:59:51.879Z,4.32
2018-12-17T12:00:54.318Z,4.33
2018-12-17T12:01:52.006Z,4.38
2018-12-17T12:02:59.514Z,4.38
2018-12-17T12:03:52.019Z,4.39
2018-12-17T12:04:52.201Z,4.42
2018-12-17T12:05:52.103Z,4.42
2018-12-17T12:06:51.992Z,4.43
2018-12-17T12:07:52.273Z,4.42
2018-12-17T12:08:51.928Z,4.42
2018-12-17T12:09:52.014Z,4.46
2018-12-17T12:10:52.023Z,4.45
2018-12-17T12:11:52.062Z,4.48
2018-12-17T12:12:51.964Z,4.46
2018-12-17T12:13:51.958Z,4.46
2018-12-17T12:14:52.032Z,4.48
2018-12-17T12:15:52.146Z,4.48
2018-12-17T12:16:52.284Z,4.51
2018-12-17T12:17:52.157Z,4.52
2018-12-17T12:18:52.047Z,4.55
2018-12-17T12:19:52.215Z,4.55
2018-12-17T12:20:52.245Z,4.56
2018-12-17T12:21:52.320Z,4.6
2018-12-17T12:22:52.582Z,4.6
2018-12-17T12:23:52.287Z,4.63
2018-12-17T12:24:52.035Z,4.63
2018-12-17T12:25:51.906Z,4.62
2018-12-17T12:26:52.112Z,4.59
2018-12-17T12:27:51.875Z,4.63
2018-12-17T12:28:51.883Z,4.65
2018-12-17T12:29:51.889Z,4.65
2018-12-17T12:30:52.343Z,4.63
2018-12-17T12:31:51.936Z,4.63
2018-12-17T12:32:51.883Z,4.6
2018-12-17T12:33:51.975Z,4.62
2018-12-17T12:34:51.966Z,4.63
2018-12-17T12:35:52.130Z,4.66
2018-12-17T12:36:52.071Z,4.66
2018-12-17T12:37:51.816Z,4.66
2018-12-17T12:38:51.947Z,4.67
2018-12-17T12:39:52.134Z,4.69
2018-12-17T12:40:51.980Z,4.66
2018-12-17T12:41:52.003Z,4.63
2018-12-17T12:42:52.226Z,4.63
2018-12-17T12:43:52.225Z,4.67
2018-12-17T12:44:51.872Z,4.67
2018-12-17T12:45:51.980Z,4.67
2018-12-17T12:46:51.889Z,4.69
2018-12-17T12:47:51.978Z,4.69
2018-12-17T12:48:52.077Z,4.7
2018-12-17T12:49:52.461Z,4.63
2018-12-17T12:50:51.900Z,4.62
2018-12-17T12:51:52.884Z,4.65
2018-12-17T12:52:52.238Z,4.6
2018-12-17T12:53:52.079Z,4.63
2018-12-17T12:54:52.075Z,4.66
2018-12-17T12:55:52.400Z,4.72
2018-12-17T12:56:52.482Z,4.76
2018-12-17T12:57:51.954Z,4.76
2018-12-17T12:58:52.130Z,4.73
2018-12-17T12:59:51.965Z,4.7
2018-12-17T13:00:52.153Z,4.7
2018-12-17T13:01:52.211Z,4.72
2018-12-17T13:02:52.088Z,4.7
2018-12-17T13:03:52.023Z,4.72
2018-12-17T13:04:52.005Z,4.73
2018-12-17T13:05:51.874Z,4.73
2018-12-17T13:06:52.376Z,4.74
2018-12-17T13:07:51.976Z,4.74
2018-12-17T13:08:52.027Z,4.77
2018-12-17T13:09:52.072Z,4.86
2018-12-17T13:10:51.797Z,4.87
2018-12-17T13:11:51.884Z,4.87
2018-12-17T13:12:52.427Z,4.84
2018-12-17T13:13:51.857Z,4.87
2018-12-17T13:14:51.817Z,4.86
2018-12-17T13:15:52.236Z,4.83
2018-12-17T13:16:52.258Z,4.84
2018-12-17T13:17:52.374Z,4.83
2018-12-17T13:18:51.960Z,4.8
2018-12-17T13:19:51.800Z,4.79
2018-12-17T13:20:52.642Z,4.77
2018-12-17T13:21:51.935Z,4.79